Time;durP1;ratioP1;P1;durP2;ratioP2;P2;SDS_P1;SDS_P2;PMS_P1;PMS_P2;Temp;Humidity;BMP_temperature;BMP_pressure;BME280_temperature;BME280_humidity;BME280_pressure;Samples;Min_cycle;Max_cycle;Signal;HPM_P1;HPM_P2
2023/06/16 00:01:41;;;;;;;6.55;2.90;;;;;;;;;;5062803;28;42452;-36
2023/06/16 00:04:09;;;;;;;4.05;3.00;;;;;;;;;;5056748;28;43299;-36
2023/06/16 00:06:37;;;;;;;5.50;3.20;;;;;;;;;;5066727;28;41316;-38
2023/06/16 00:09:06;;;;;;;4.75;3.28;;;;;;;;;;5062965;28;42723;-38
2023/06/16 00:11:34;;;;;;;4.97;3.35;;;;;;;;;;5053291;28;42828;-34
2023/06/16 00:14:02;;;;;;;4.32;3.38;;;;;;;;;;5062317;28;40668;-39
2023/06/16 00:16:30;;;;;;;3.63;3.15;;;;;;;;;;5061990;28;42682;-38
2023/06/16 00:18:59;;;;;;;4.40;3.20;;;;;;;;;;5059531;28;44497;-37
2023/06/16 00:21:29;;;;;;;4.80;3.35;;;;;;;;;;5049518;28;40412;-39
2023/06/16 00:23:57;;;;;;;5.78;3.10;;;;;;;;;;5054621;28;43579;-40
2023/06/16 00:26:26;;;;;;;4.90;3.20;;;;;;;;;;5060561;28;41594;-37
2023/06/16 00:28:54;;;;;;;4.10;3.47;;;;;;;;;;5058224;28;42680;-40
2023/06/16 00:31:22;;;;;;;5.43;3.55;;;;;;;;;;5055600;28;43464;-40
2023/06/16 00:33:50;;;;;;;5.50;3.60;;;;;;;;;;5061333;28;40941;-35
2023/06/16 00:36:19;;;;;;;3.58;3.28;;;;;;;;;;5062455;28;43141;-40
2023/06/16 00:38:47;;;;;;;4.43;3.40;;;;;;;;;;5065623;28;43489;-36
2023/06/16 00:41:15;;;;;;;3.85;3.30;;;;;;;;;;5053456;28;40894;-39
2023/06/16 00:43:43;;;;;;;6.47;3.25;;;;;;;;;;5043048;28;41628;-40
2023/06/16 00:46:12;;;;;;;4.72;3.13;;;;;;;;;;5060769;28;39922;-35
2023/06/16 00:48:40;;;;;;;3.80;3.20;;;;;;;;;;5056361;28;42929;-40
2023/06/16 00:51:09;;;;;;;4.22;3.20;;;;;;;;;;5047727;28;41868;-36
2023/06/16 00:53:39;;;;;;;3.28;2.95;;;;;;;;;;5058295;28;40744;-37
2023/06/16 00:56:07;;;;;;;6.07;3.47;;;;;;;;;;5061906;28;42060;-40
2023/06/16 00:58:36;;;;;;;6.13;3.40;;;;;;;;;;5043700;28;41966;-39
2023/06/16 01:01:04;;;;;;;3.70;3.10;;;;;;;;;;5057272;28;40566;-40
2023/06/16 01:03:33;;;;;;;4.40;3.10;;;;;;;;;;5055804;28;42451;-37
2023/06/16 01:06:03;;;;;;;3.60;3.15;;;;;;;;;;5032437;28;42255;-38
2023/06/16 01:08:33;;;;;;;4.32;3.33;;;;;;;;;;5045692;28;42220;-39
2023/06/16 01:11:03;;;;;;;4.60;2.85;;;;;;;;;;5039248;28;42286;-36
2023/06/16 01:13:36;;;;;;;7.53;3.58;;;;;;;;;;5063746;28;40834;-38
2023/06/16 01:16:04;;;;;;;5.90;2.88;;;;;;;;;;5036265;28;42547;-35
2023/06/16 01:18:32;;;;;;;5.78;3.50;;;;;;;;;;5030008;28;43041;-37
2023/06/16 01:21:01;;;;;;;3.53;3.03;;;;;;;;;;5053188;28;41195;-37
2023/06/16 01:23:33;;;;;;;4.38;3.53;;;;;;;;;;5047328;28;41308;-39
2023/06/16 01:26:02;;;;;;;5.47;2.90;;;;;;;;;;5058285;28;44470;-40
2023/06/16 01:28:31;;;;;;;5.82;3.88;;;;;;;;;;5047256;28;39167;-36
2023/06/16 01:31:00;;;;;;;4.85;3.20;;;;;;;;;;5047905;28;44507;-39
2023/06/16 01:33:28;;;;;;;3.90;3.45;;;;;;;;;;5065513;28;40085;-40
2023/06/16 01:35:56;;;;;;;5.00;3.60;;;;;;;;;;5066517;28;42842;-40
2023/06/16 01:38:25;;;;;;;5.50;3.40;;;;;;;;;;5054031;28;43456;-41
2023/06/16 01:40:53;;;;;;;7.50;3.45;;;;;;;;;;5051167;28;41254;-34
2023/06/16 01:43:22;;;;;;;3.80;3.50;;;;;;;;;;5054074;28;43449;-38
2023/06/16 01:45:51;;;;;;;5.05;3.22;;;;;;;;;;5042376;28;43352;-39
2023/06/16 01:48:19;;;;;;;4.20;3.42;;;;;;;;;;5056680;28;40985;-39
2023/06/16 01:50:47;;;;;;;4.85;3.10;;;;;;;;;;5038022;28;41791;-37
2023/06/16 01:53:17;;;;;;;6.47;2.95;;;;;;;;;;5043923;28;39296;-39
2023/06/16 01:55:47;;;;;;;4.72;3.53;;;;;;;;;;5058820;28;42667;-39
2023/06/16 01:58:15;;;;;;;5.43;3.25;;;;;;;;;;5043265;28;42946;-36
2023/06/16 02:00:46;;;;;;;4.38;3.10;;;;;;;;;;5042407;28;38894;-38
2023/06/16 02:03:15;;;;;;;3.83;3.33;;;;;;;;;;5065889;28;42397;-40
2023/06/16 02:05:45;;;;;;;3.95;2.90;;;;;;;;;;5056034;28;43169;-39
2023/06/16 02:08:12;;;;;;;4.38;3.30;;;;;;;;;;5058471;28;41379;-36
2023/06/16 02:10:40;;;;;;;4.82;3.58;;;;;;;;;;5040429;28;42341;-39
2023/06/16 02:13:08;;;;;;;4.28;3.60;;;;;;;;;;5035459;28;39316;-36
2023/06/16 02:15:36;;;;;;;4.88;3.10;;;;;;;;;;5058348;28;43300;-40
2023/06/16 02:18:09;;;;;;;3.80;3.10;;;;;;;;;;5043741;28;43059;-39
2023/06/16 02:20:38;;;;;;;3.40;3.10;;;;;;;;;;5060173;28;40000;-38
2023/06/16 02:23:06;;;;;;;4.20;3.13;;;;;;;;;;5060561;28;43541;-37
2023/06/16 02:25:34;;;;;;;4.13;3.15;;;;;;;;;;5037354;28;42096;-37
2023/06/16 02:28:02;;;;;;;5.22;3.30;;;;;;;;;;5065123;28;41220;-36
2023/06/16 02:30:30;;;;;;;3.55;2.90;;;;;;;;;;5049450;28;41441;-39
2023/06/16 02:32:58;;;;;;;5.30;3.72;;;;;;;;;;5037239;28;41945;-41
2023/06/16 02:35:31;;;;;;;6.38;3.33;;;;;;;;;;5032221;28;41826;-38
2023/06/16 02:38:00;;;;;;;5.18;3.25;;;;;;;;;;5065218;28;45510;-38
2023/06/16 02:40:28;;;;;;;5.18;3.20;;;;;;;;;;5060100;28;41320;-40
2023/06/16 02:42:56;;;;;;;5.60;3.40;;;;;;;;;;5060280;28;42909;-37
2023/06/16 02:45:24;;;;;;;5.80;3.33;;;;;;;;;;5055377;28;43140;-37
2023/06/16 02:47:52;;;;;;;5.20;3.25;;;;;;;;;;5039632;28;39275;-39
2023/06/16 02:50:21;;;;;;;4.30;3.40;;;;;;;;;;5037262;28;42208;-38
2023/06/16 02:52:51;;;;;;;7.07;3.50;;;;;;;;;;5042708;28;42199;-38
2023/06/16 02:55:21;;;;;;;3.75;3.10;;;;;;;;;;5042646;28;40060;-36
2023/06/16 02:57:54;;;;;;;5.47;3.35;;;;;;;;;;5036899;28;42784;-38
2023/06/16 03:00:22;;;;;;;3.72;3.13;;;;;;;;;;5035465;28;39299;-37
2023/06/16 03:03:09;;;;;;;3.88;3.30;;;;;;;;;;5060651;28;43133;-38
2023/06/16 03:05:39;;;;;;;5.10;3.70;;;;;;;;;;5032568;28;43592;-39
2023/06/16 03:08:09;;;;;;;5.32;3.53;;;;;;;;;;5032475;28;40214;-37
2023/06/16 03:10:37;;;;;;;4.88;3.40;;;;;;;;;;5035430;28;42555;-37
2023/06/16 03:13:08;;;;;;;4.07;3.30;;;;;;;;;;5043488;28;41347;-40
2023/06/16 03:15:36;;;;;;;5.05;3.42;;;;;;;;;;5040717;28;38938;-39
2023/06/16 03:18:05;;;;;;;7.22;3.17;;;;;;;;;;5037914;28;43918;-37
2023/06/16 03:20:34;;;;;;;4.03;3.58;;;;;;;;;;5056638;28;42259;-35
2023/06/16 03:23:18;;;;;;;6.18;3.47;;;;;;;;;;5042860;28;42504;-38
2023/06/16 03:25:47;;;;;;;6.57;3.72;;;;;;;;;;5033240;28;41183;-39
2023/06/16 03:28:19;;;;;;;3.38;3.08;;;;;;;;;;5039507;28;40518;-40
2023/06/16 03:30:48;;;;;;;4.55;3.38;;;;;;;;;;5046211;28;41948;-36
2023/06/16 03:33:23;;;;;;;5.10;3.33;;;;;;;;;;5045243;28;42970;-39
2023/06/16 03:35:51;;;;;;;4.32;3.40;;;;;;;;;;5049631;28;38777;-38
2023/06/16 03:38:34;;;;;;;6.22;3.60;;;;;;;;;;5030582;28;42454;-40
2023/06/16 03:41:02;;;;;;;3.50;3.17;;;;;;;;;;5031852;28;31829;-39
2023/06/16 03:43:30;;;;;;;5.00;3.40;;;;;;;;;;5044841;28;42188;-37
2023/06/16 03:45:59;;;;;;;4.80;3.53;;;;;;;;;;5035035;28;42543;-40
2023/06/16 03:48:28;;;;;;;3.75;3.38;;;;;;;;;;5032850;28;38910;-37
2023/06/16 03:50:59;;;;;;;5.00;3.70;;;;;;;;;;5049062;28;41507;-41
2023/06/16 03:53:28;;;;;;;5.70;3.55;;;;;;;;;;5064562;28;43385;-36
2023/06/16 03:55:57;;;;;;;5.35;3.65;;;;;;;;;;5056066;28;40557;-40
2023/06/16 03:58:25;;;;;;;6.57;3.42;;;;;;;;;;5048739;28;41392;-40
2023/06/16 04:00:53;;;;;;;4.28;3.25;;;;;;;;;;5062324;28;43301;-38
2023/06/16 04:03:25;;;;;;;4.00;3.60;;;;;;;;;;5044446;28;42158;-36
2023/06/16 04:05:54;;;;;;;4.63;3.15;;;;;;;;;;5048131;28;43366;-37
2023/06/16 04:08:21;;;;;;;5.90;3.63;;;;;;;;;;5030734;28;39903;-35
2023/06/16 04:10:49;;;;;;;5.25;2.92;;;;;;;;;;5036648;28;41403;-38
2023/06/16 04:13:19;;;;;;;4.80;3.28;;;;;;;;;;5051192;28;43049;-38
2023/06/16 04:15:48;;;;;;;5.05;3.33;;;;;;;;;;5036380;28;39928;-39
2023/06/16 04:18:17;;;;;;;5.50;3.72;;;;;;;;;;5036998;28;41997;-36
2023/06/16 04:20:46;;;;;;;5.05;3.40;;;;;;;;;;5043179;28;42862;-37
2023/06/16 04:23:14;;;;;;;5.25;3.67;;;;;;;;;;5036568;28;39783;-39
2023/06/16 04:25:42;;;;;;;4.53;3.20;;;;;;;;;;5036117;28;43672;-36
2023/06/16 04:28:13;;;;;;;5.32;3.10;;;;;;;;;;5039367;28;40027;-40
2023/06/16 04:30:47;;;;;;;3.92;3.33;;;;;;;;;;5046077;28;42253;-39
2023/06/16 04:33:15;;;;;;;5.55;3.55;;;;;;;;;;5044230;28;42749;-40
2023/06/16 04:35:43;;;;;;;3.85;3.45;;;;;;;;;;5058283;28;40775;-37
2023/06/16 04:38:13;;;;;;;4.95;3.40;;;;;;;;;;5034036;28;40950;-37
2023/06/16 04:40:41;;;;;;;3.85;3.33;;;;;;;;;;5044713;28;42241;-40
2023/06/16 04:43:10;;;;;;;3.97;3.20;;;;;;;;;;5046743;28;39926;-38
2023/06/16 04:45:38;;;;;;;4.15;3.75;;;;;;;;;;5037891;28;42569;-41
2023/06/16 04:48:08;;;;;;;4.95;3.95;;;;;;;;;;5047842;28;39132;-36
2023/06/16 04:50:36;;;;;;;3.92;3.33;;;;;;;;;;5035699;28;41808;-37
2023/06/16 04:53:05;;;;;;;3.90;3.42;;;;;;;;;;5055748;28;43503;-39
2023/06/16 04:55:34;;;;;;;5.22;3.47;;;;;;;;;;5038467;28;39904;-36
2023/06/16 04:58:02;;;;;;;4.25;3.80;;;;;;;;;;5062548;28;43714;-39
2023/06/16 05:00:30;;;;;;;3.55;3.25;;;;;;;;;;5053254;28;43727;-37
2023/06/16 05:02:58;;;;;;;5.10;3.72;;;;;;;;;;5038479;28;39313;-40
2023/06/16 05:05:28;;;;;;;6.07;3.55;;;;;;;;;;5034415;28;42912;-36
2023/06/16 05:07:56;;;;;;;4.13;3.45;;;;;;;;;;5031971;28;42333;-40
2023/06/16 05:10:26;;;;;;;5.45;3.00;;;;;;;;;;5042047;28;42012;-38
2023/06/16 05:12:54;;;;;;;5.25;3.70;;;;;;;;;;5049420;28;43813;-38
2023/06/16 05:15:22;;;;;;;3.70;3.30;;;;;;;;;;5049528;28;40401;-37
2023/06/16 05:17:50;;;;;;;4.22;3.55;;;;;;;;;;5041935;28;41346;-37
2023/06/16 05:20:18;;;;;;;4.82;3.22;;;;;;;;;;5040670;28;42100;-38
2023/06/16 05:22:48;;;;;;;4.57;3.60;;;;;;;;;;5038395;28;38917;-39
2023/06/16 05:25:16;;;;;;;4.60;3.13;;;;;;;;;;5032558;28;41093;-35
2023/06/16 05:27:45;;;;;;;4.15;3.03;;;;;;;;;;5034854;28;43397;-39
2023/06/16 05:30:13;;;;;;;4.55;3.50;;;;;;;;;;5041046;28;38601;-39
2023/06/16 05:32:41;;;;;;;4.97;3.50;;;;;;;;;;5044336;28;43333;-39
2023/06/16 05:35:09;;;;;;;4.07;3.33;;;;;;;;;;5032553;28;38668;-37
2023/06/16 05:37:38;;;;;;;4.38;3.80;;;;;;;;;;5043739;28;42059;-41
2023/06/16 05:40:08;;;;;;;3.67;3.10;;;;;;;;;;5038192;28;42011;-36
2023/06/16 05:42:37;;;;;;;5.18;3.65;;;;;;;;;;5040983;28;38903;-39
2023/06/16 05:45:06;;;;;;;4.60;3.33;;;;;;;;;;5032243;28;42230;-40
2023/06/16 05:47:34;;;;;;;4.40;3.78;;;;;;;;;;5046081;28;42783;-38
2023/06/16 05:50:02;;;;;;;5.82;3.53;;;;;;;;;;5046647;28;39833;-37
2023/06/16 05:52:31;;;;;;;4.80;3.50;;;;;;;;;;5045262;28;42196;-38
2023/06/16 05:54:59;;;;;;;5.72;3.53;;;;;;;;;;5033513;28;39674;-38
2023/06/16 05:57:38;;;;;;;3.47;3.17;;;;;;;;;;5027893;28;43107;-39
2023/06/16 06:00:06;;;;;;;4.75;3.63;;;;;;;;;;5048560;28;43654;-37
2023/06/16 06:02:40;;;;;;;3.97;3.58;;;;;;;;;;5052712;28;40876;-39
2023/06/16 06:05:18;;;;;;;3.88;3.17;;;;;;;;;;5035413;28;41395;-39
2023/06/16 06:07:46;;;;;;;3.92;3.53;;;;;;;;;;5066151;28;43151;-38
2023/06/16 06:10:14;;;;;;;5.03;3.38;;;;;;;;;;5047708;28;40110;-35
2023/06/16 06:12:44;;;;;;;4.93;3.67;;;;;;;;;;5043821;28;41806;-38
2023/06/16 06:15:11;;;;;;;7.22;3.42;;;;;;;;;;5047216;28;40908;-36
2023/06/16 06:17:41;;;;;;;10.60;3.17;;;;;;;;;;5038696;28;42506;-39
2023/06/16 06:20:11;;;;;;;5.65;3.53;;;;;;;;;;5035171;28;42026;-37
2023/06/16 06:22:40;;;;;;;12.73;4.10;;;;;;;;;;5026369;28;39114;-39
2023/06/16 06:25:10;;;;;;;10.35;4.10;;;;;;;;;;5042921;28;41219;-40
2023/06/16 06:27:38;;;;;;;7.22;3.80;;;;;;;;;;5033482;28;41933;-36
2023/06/16 06:30:08;;;;;;;7.88;3.40;;;;;;;;;;5030743;28;39482;-41
2023/06/16 06:32:37;;;;;;;5.07;3.80;;;;;;;;;;5030635;28;42532;-39
2023/06/16 06:35:06;;;;;;;11.35;3.75;;;;;;;;;;5037901;28;41743;-38
2023/06/16 06:37:34;;;;;;;6.03;3.72;;;;;;;;;;5030283;28;43503;-40
2023/06/16 06:40:02;;;;;;;9.70;3.97;;;;;;;;;;5030852;28;42997;-41
2023/06/16 06:42:31;;;;;;;6.78;3.83;;;;;;;;;;5029496;28;38847;-37
2023/06/16 06:45:01;;;;;;;6.68;3.50;;;;;;;;;;5040312;28;42513;-38
2023/06/16 06:47:30;;;;;;;10.75;3.70;;;;;;;;;;5049007;28;44338;-37
2023/06/16 06:50:06;;;;;;;6.55;3.80;;;;;;;;;;5030766;28;38938;-38
2023/06/16 06:52:34;;;;;;;9.68;3.90;;;;;;;;;;5056284;28;43268;-40
2023/06/16 06:55:02;;;;;;;6.88;3.85;;;;;;;;;;5048212;28;44140;-36
2023/06/16 06:57:30;;;;;;;5.70;3.45;;;;;;;;;;5048294;28;40134;-37
2023/06/16 06:59:58;;;;;;;5.90;3.45;;;;;;;;;;5048994;28;44416;-40
2023/06/16 07:02:26;;;;;;;4.00;3.60;;;;;;;;;;5058941;28;41095;-39
2023/06/16 07:04:56;;;;;;;5.63;3.50;;;;;;;;;;5055271;28;43148;-36
2023/06/16 07:07:24;;;;;;;5.38;3.58;;;;;;;;;;5047803;28;43600;-38
2023/06/16 07:09:51;;;;;;;6.50;3.70;;;;;;;;;;5048710;28;40237;-37
2023/06/16 07:12:19;;;;;;;8.52;3.78;;;;;;;;;;5046517;28;42838;-38
2023/06/16 07:14:48;;;;;;;4.32;3.35;;;;;;;;;;5047657;28;43016;-41
2023/06/16 07:17:16;;;;;;;5.85;3.45;;;;;;;;;;5047677;28;41262;-35
2023/06/16 07:19:43;;;;;;;7.15;3.30;;;;;;;;;;5048941;28;42683;-38
2023/06/16 07:22:13;;;;;;;5.93;3.42;;;;;;;;;;5048842;28;41207;-37
2023/06/16 07:24:41;;;;;;;3.45;3.13;;;;;;;;;;5046859;28;43000;-37
2023/06/16 07:27:09;;;;;;;4.20;3.30;;;;;;;;;;5048367;28;43563;-38
2023/06/16 07:29:37;;;;;;;4.10;3.47;;;;;;;;;;5047712;28;42246;-39
2023/06/16 07:32:06;;;;;;;5.28;3.50;;;;;;;;;;5047387;28;43219;-42
2023/06/16 07:34:34;;;;;;;5.05;2.85;;;;;;;;;;5047540;28;42853;-37
2023/06/16 07:37:04;;;;;;;7.88;3.38;;;;;;;;;;5046508;28;41967;-37
2023/06/16 07:39:33;;;;;;;4.20;3.45;;;;;;;;;;5047742;28;43448;-39
2023/06/16 07:42:01;;;;;;;4.35;3.15;;;;;;;;;;5049439;28;44376;-37
2023/06/16 07:44:29;;;;;;;5.70;3.50;;;;;;;;;;5030855;28;43247;-36
2023/06/16 07:46:57;;;;;;;6.50;3.47;;;;;;;;;;5049583;28;44540;-36
2023/06/16 07:49:26;;;;;;;3.75;3.03;;;;;;;;;;5047809;28;39906;-40
2023/06/16 07:51:54;;;;;;;4.35;3.00;;;;;;;;;;5047278;28;42542;-39
2023/06/16 07:54:22;;;;;;;3.97;3.40;;;;;;;;;;5047166;28;43494;-39
2023/06/16 07:56:51;;;;;;;6.20;3.70;;;;;;;;;;5048289;28;40691;-37
2023/06/16 07:59:19;;;;;;;5.18;3.38;;;;;;;;;;5046969;28;42061;-39
2023/06/16 08:01:47;;;;;;;4.40;3.28;;;;;;;;;;5049274;28;44082;-35
2023/06/16 08:04:15;;;;;;;4.13;3.03;;;;;;;;;;5062255;28;42992;-38
2023/06/16 08:06:44;;;;;;;4.88;3.58;;;;;;;;;;5057507;28;43064;-37
2023/06/16 08:09:12;;;;;;;3.78;3.20;;;;;;;;;;5068549;28;40580;-41
2023/06/16 08:11:40;;;;;;;3.58;3.28;;;;;;;;;;5058879;28;42560;-38
2023/06/16 08:14:09;;;;;;;5.53;3.35;;;;;;;;;;5067489;28;43211;-37
2023/06/16 08:16:37;;;;;;;5.97;3.70;;;;;;;;;;5067073;28;40343;-37
2023/06/16 08:19:06;;;;;;;3.60;3.30;;;;;;;;;;5067404;28;43705;-39
2023/06/16 08:21:34;;;;;;;5.78;3.33;;;;;;;;;;5060635;28;44149;-38
2023/06/16 08:24:02;;;;;;;4.18;3.35;;;;;;;;;;5056558;28;40379;-39
2023/06/16 08:26:30;;;;;;;5.13;3.45;;;;;;;;;;5061832;28;44428;-39
2023/06/16 08:28:59;;;;;;;4.93;3.28;;;;;;;;;;5057058;28;40399;-32
2023/06/16 08:31:29;;;;;;;4.60;3.20;;;;;;;;;;5054907;28;42822;-35
2023/06/16 08:33:59;;;;;;;4.43;3.13;;;;;;;;;;5065461;28;44127;-35
2023/06/16 08:36:27;;;;;;;5.13;3.40;;;;;;;;;;5052509;28;39841;-35
2023/06/16 08:38:54;;;;;;;4.18;3.00;;;;;;;;;;5047065;28;43005;-34
2023/06/16 08:41:22;;;;;;;4.78;3.17;;;;;;;;;;5049902;28;43123;-35
2023/06/16 08:43:51;;;;;;;3.90;3.47;;;;;;;;;;5064665;28;41615;-33
2023/06/16 08:46:18;;;;;;;4.75;3.00;;;;;;;;;;5067446;28;42342;-33
2023/06/16 08:48:48;;;;;;;5.88;3.28;;;;;;;;;;5066407;28;39944;-35
2023/06/16 08:51:16;;;;;;;3.60;3.30;;;;;;;;;;5054189;28;42420;-35
2023/06/16 08:53:44;;;;;;;4.57;3.80;;;;;;;;;;5061039;28;43483;-35
2023/06/16 08:56:12;;;;;;;6.28;3.50;;;;;;;;;;5047306;28;39962;-33
2023/06/16 08:58:42;;;;;;;6.90;3.55;;;;;;;;;;5048637;28;42667;-32
2023/06/16 09:01:10;;;;;;;3.35;3.05;;;;;;;;;;5046932;28;43687;-34
2023/06/16 09:03:38;;;;;;;4.05;3.42;;;;;;;;;;5050316;28;39982;-35
2023/06/16 09:06:09;;;;;;;5.15;3.28;;;;;;;;;;5045133;28;43904;-34
2023/06/16 09:08:37;;;;;;;4.47;3.50;;;;;;;;;;5057237;28;43329;-32
2023/06/16 09:11:11;;;;;;;3.83;3.50;;;;;;;;;;5066714;28;42710;-34
2023/06/16 09:13:41;;;;;;;4.03;3.60;;;;;;;;;;5064452;28;42912;-35
2023/06/16 09:16:09;;;;;;;4.25;3.42;;;;;;;;;;5048912;28;40439;-37
2023/06/16 09:18:40;;;;;;;4.72;3.47;;;;;;;;;;5056176;28;42946;-33
2023/06/16 09:21:11;;;;;;;3.60;3.30;;;;;;;;;;5046917;28;43046;-34
2023/06/16 09:23:39;;;;;;;3.63;3.33;;;;;;;;;;5045863;28;40191;-33
2023/06/16 09:26:11;;;;;;;3.53;3.22;;;;;;;;;;5059647;28;42853;-32
2023/06/16 09:28:39;;;;;;;4.65;3.45;;;;;;;;;;5046023;28;43255;-34
2023/06/16 09:31:07;;;;;;;5.00;3.67;;;;;;;;;;5046116;28;40446;-34
2023/06/16 09:33:40;;;;;;;3.63;3.33;;;;;;;;;;5050256;28;43301;-34
2023/06/16 09:36:08;;;;;;;5.50;2.85;;;;;;;;;;5046879;28;39846;-35
2023/06/16 09:38:37;;;;;;;4.05;3.65;;;;;;;;;;5054043;28;42873;-35
2023/06/16 09:41:09;;;;;;;4.93;3.42;;;;;;;;;;5046837;28;43117;-33
2023/06/16 09:43:37;;;;;;;4.70;3.40;;;;;;;;;;5058147;28;40367;-34
2023/06/16 09:46:06;;;;;;;3.55;3.25;;;;;;;;;;5066328;28;42861;-35
2023/06/16 09:48:35;;;;;;;5.68;3.15;;;;;;;;;;5049982;28;47280;-37
2023/06/16 09:51:07;;;;;;;5.70;3.92;;;;;;;;;;5048857;28;40949;-33
2023/06/16 09:53:37;;;;;;;4.55;3.30;;;;;;;;;;5044806;28;42824;-34
2023/06/16 09:56:05;;;;;;;3.92;3.15;;;;;;;;;;5054496;28;40482;-34
2023/06/16 09:58:33;;;;;;;4.20;3.65;;;;;;;;;;5053029;28;42448;-33
2023/06/16 10:01:09;;;;;;;4.10;3.50;;;;;;;;;;5050534;28;43402;-33
2023/06/16 10:03:39;;;;;;;3.85;3.30;;;;;;;;;;5059387;28;40378;-34
2023/06/16 10:06:09;;;;;;;5.28;3.50;;;;;;;;;;5046755;28;43003;-32
2023/06/16 10:08:41;;;;;;;4.53;3.38;;;;;;;;;;5060406;28;42978;-32
2023/06/16 10:11:09;;;;;;;4.20;3.80;;;;;;;;;;5050208;28;41138;-33
2023/06/16 10:13:37;;;;;;;7.03;3.83;;;;;;;;;;5048026;28;43558;-32
2023/06/16 10:16:05;;;;;;;4.38;3.90;;;;;;;;;;5049389;28;40979;-32
2023/06/16 10:18:33;;;;;;;7.25;3.83;;;;;;;;;;5030100;28;41224;-34
2023/06/16 10:21:01;;;;;;;3.88;3.28;;;;;;;;;;5048593;28;43574;-33
2023/06/16 10:23:29;;;;;;;3.47;3.17;;;;;;;;;;5048640;28;41343;-34
2023/06/16 10:25:59;;;;;;;4.03;3.72;;;;;;;;;;5048800;28;42318;-32
2023/06/16 10:28:26;;;;;;;6.93;3.88;;;;;;;;;;5048583;28;44468;-32
2023/06/16 10:30:54;;;;;;;4.10;3.70;;;;;;;;;;5053994;28;40254;-33
2023/06/16 10:33:25;;;;;;;4.65;3.50;;;;;;;;;;5067941;28;43085;-33
2023/06/16 10:35:53;;;;;;;5.28;3.28;;;;;;;;;;5069223;28;44485;-32
2023/06/16 10:38:39;;;;;;;6.75;3.80;;;;;;;;;;5057572;28;43264;-33
2023/06/16 10:41:14;;;;;;;3.83;3.42;;;;;;;;;;5049747;28;44409;-34
2023/06/16 10:45:15;;;;;;;4.82;3.67;;;;;;;;;;5090557;27;20572;-44
2023/06/16 10:47:50;;;;;;;3.80;3.17;;;;;;;;;;5077253;28;43486;-43
2023/06/16 10:50:18;;;;;;;5.68;3.90;;;;;;;;;;5078132;28;41247;-44
2023/06/16 10:52:50;;;;;;;5.55;3.58;;;;;;;;;;5081568;28;42554;-44
2023/06/16 10:55:26;;;;;;;4.07;3.67;;;;;;;;;;5080083;28;44201;-44
2023/06/16 10:57:57;;;;;;;3.92;3.53;;;;;;;;;;5078823;28;40233;-43
2023/06/16 11:00:27;;;;;;;4.53;3.50;;;;;;;;;;5079945;28;42833;-43
2023/06/16 11:02:59;;;;;;;5.45;3.78;;;;;;;;;;5080911;28;44110;-43
2023/06/16 11:05:36;;;;;;;6.07;3.90;;;;;;;;;;5080272;28;38956;-43
2023/06/16 11:08:14;;;;;;;6.45;4.07;;;;;;;;;;5067361;28;44227;-43
2023/06/16 11:10:48;;;;;;;5.63;4.25;;;;;;;;;;5081528;28;39929;-43
2023/06/16 11:13:16;;;;;;;6.55;4.07;;;;;;;;;;5081733;28;42510;-43
2023/06/16 11:15:44;;;;;;;5.25;4.15;;;;;;;;;;5081561;28;43128;-43
2023/06/16 11:18:13;;;;;;;5.50;4.57;;;;;;;;;;5081588;28;41391;-43
2023/06/16 11:20:41;;;;;;;5.93;4.47;;;;;;;;;;5080424;28;42391;-43
2023/06/16 11:23:10;;;;;;;4.82;4.32;;;;;;;;;;5081111;28;42736;-43
2023/06/16 11:25:38;;;;;;;10.18;4.72;;;;;;;;;;5081554;28;40516;-42
2023/06/16 11:28:06;;;;;;;4.82;4.25;;;;;;;;;;5081342;28;42223;-43
2023/06/16 11:30:36;;;;;;;4.80;4.25;;;;;;;;;;5080063;28;40191;-43
2023/06/16 11:33:04;;;;;;;4.72;3.95;;;;;;;;;;5080428;28;42558;-42
2023/06/16 11:35:33;;;;;;;5.55;4.43;;;;;;;;;;5080212;28;44193;-43
2023/06/16 11:38:01;;;;;;;5.15;4.53;;;;;;;;;;5079204;28;41975;-42
2023/06/16 11:40:30;;;;;;;8.27;4.85;;;;;;;;;;5080446;28;42455;-43
2023/06/16 11:42:58;;;;;;;6.47;4.32;;;;;;;;;;5079340;28;43535;-43
2023/06/16 11:45:26;;;;;;;6.72;4.45;;;;;;;;;;5077472;28;39822;-43
2023/06/16 11:47:54;;;;;;;6.45;4.60;;;;;;;;;;5080495;28;43724;-42
2023/06/16 11:50:22;;;;;;;5.03;4.53;;;;;;;;;;5079160;28;43893;-42
2023/06/16 11:52:52;;;;;;;5.15;4.13;;;;;;;;;;5079590;28;43742;-42
2023/06/16 11:55:20;;;;;;;5.78;5.13;;;;;;;;;;5071556;28;44118;-43
2023/06/16 11:57:48;;;;;;;5.68;5.05;;;;;;;;;;5065363;28;40703;-43
2023/06/16 12:00:16;;;;;;;5.25;4.55;;;;;;;;;;5065024;28;43826;-42
2023/06/16 12:02:45;;;;;;;5.80;5.20;;;;;;;;;;5065767;28;44074;-43
2023/06/16 12:05:17;;;;;;;5.82;4.63;;;;;;;;;;5049865;28;41359;-43
2023/06/16 12:07:46;;;;;;;5.45;4.65;;;;;;;;;;5061331;28;42752;-44
2023/06/16 12:10:15;;;;;;;8.30;4.60;;;;;;;;;;5067680;28;42839;-43
2023/06/16 12:12:43;;;;;;;6.00;4.95;;;;;;;;;;5063448;28;40054;-44
2023/06/16 12:15:13;;;;;;;4.93;4.43;;;;;;;;;;5063710;28;41996;-44
2023/06/16 12:17:41;;;;;;;6.82;4.57;;;;;;;;;;5061626;28;39782;-44
2023/06/16 12:20:09;;;;;;;5.93;4.28;;;;;;;;;;5064077;28;43456;-44
2023/06/16 12:22:38;;;;;;;7.22;5.00;;;;;;;;;;5060049;28;44475;-39
2023/06/16 12:25:10;;;;;;;6.05;4.72;;;;;;;;;;5064287;28;40450;-36
2023/06/16 12:27:39;;;;;;;5.43;4.60;;;;;;;;;;5062805;28;43568;-41
2023/06/16 12:30:08;;;;;;;5.50;4.68;;;;;;;;;;5062028;28;43601;-34
2023/06/16 12:32:36;;;;;;;6.03;4.60;;;;;;;;;;5062593;28;40008;-38
2023/06/16 12:35:04;;;;;;;5.10;4.70;;;;;;;;;;5063663;28;43262;-40
2023/06/16 12:37:32;;;;;;;5.05;4.63;;;;;;;;;;5060521;28;40911;-35
2023/06/16 12:40:03;;;;;;;6.72;4.43;;;;;;;;;;5060995;28;41065;-35
2023/06/16 12:42:31;;;;;;;6.45;4.50;;;;;;;;;;5060737;28;44073;-39
2023/06/16 12:45:02;;;;;;;5.38;4.25;;;;;;;;;;5059455;28;38978;-35
2023/06/16 12:47:30;;;;;;;7.63;4.57;;;;;;;;;;5060686;28;42753;-37
2023/06/16 12:49:58;;;;;;;5.30;4.15;;;;;;;;;;5064109;28;43900;-38
2023/06/16 12:52:27;;;;;;;4.38;3.97;;;;;;;;;;5063231;28;40185;-35
2023/06/16 12:54:55;;;;;;;7.20;3.95;;;;;;;;;;5064536;28;42303;-39
2023/06/16 12:57:23;;;;;;;5.32;4.22;;;;;;;;;;5062159;28;32048;-38
2023/06/16 12:59:52;;;;;;;6.53;4.47;;;;;;;;;;5056808;28;43253;-37
2023/06/16 13:02:21;;;;;;;4.30;3.90;;;;;;;;;;5063545;28;43065;-37
2023/06/16 13:04:49;;;;;;;4.53;3.88;;;;;;;;;;5067384;28;40090;-38
2023/06/16 13:07:17;;;;;;;6.32;4.40;;;;;;;;;;5065335;28;42697;-37
2023/06/16 13:09:45;;;;;;;4.30;3.90;;;;;;;;;;5059973;28;43075;-39
2023/06/16 13:12:14;;;;;;;4.75;4.22;;;;;;;;;;5066941;28;40402;-36
2023/06/16 13:14:42;;;;;;;5.40;4.20;;;;;;;;;;5066324;28;43067;-39
2023/06/16 13:17:10;;;;;;;4.47;3.80;;;;;;;;;;5065190;28;44487;-35
2023/06/16 13:19:40;;;;;;;4.95;4.15;;;;;;;;;;5065846;28;43251;-34
2023/06/16 13:22:08;;;;;;;4.75;4.03;;;;;;;;;;5065591;28;43339;-36
2023/06/16 13:24:37;;;;;;;4.30;3.90;;;;;;;;;;5066181;28;40352;-36
2023/06/16 13:27:05;;;;;;;4.20;3.83;;;;;;;;;;5066323;28;43069;-36
2023/06/16 13:29:33;;;;;;;4.25;3.83;;;;;;;;;;5065100;28;43213;-40
2023/06/16 13:32:01;;;;;;;4.63;4.00;;;;;;;;;;5063351;28;40038;-37
2023/06/16 13:34:29;;;;;;;4.30;3.90;;;;;;;;;;5066246;28;42651;-36
2023/06/16 13:36:58;;;;;;;4.80;4.30;;;;;;;;;;5058679;28;43234;-38
2023/06/16 13:39:27;;;;;;;5.43;4.18;;;;;;;;;;5063824;28;42111;-39
2023/06/16 13:41:54;;;;;;;4.55;3.90;;;;;;;;;;5066408;28;45106;-38
2023/06/16 13:44:22;;;;;;;4.15;3.63;;;;;;;;;;5064910;28;40305;-40
2023/06/16 13:46:50;;;;;;;5.65;4.18;;;;;;;;;;5066308;28;42766;-40
2023/06/16 13:49:18;;;;;;;5.05;4.18;;;;;;;;;;5065430;28;43020;-36
2023/06/16 13:51:47;;;;;;;4.70;4.25;;;;;;;;;;5065122;28;40568;-37
2023/06/16 13:54:16;;;;;;;4.00;3.70;;;;;;;;;;5066595;28;42754;-39
2023/06/16 13:56:45;;;;;;;4.75;4.25;;;;;;;;;;5065826;28;43448;-38
2023/06/16 13:59:13;;;;;;;5.93;4.00;;;;;;;;;;5065212;28;41390;-37
2023/06/16 14:01:41;;;;;;;7.50;4.00;;;;;;;;;;5066573;28;42380;-39
2023/06/16 14:04:09;;;;;;;5.05;4.03;;;;;;;;;;5065203;28;41129;-34
2023/06/16 14:06:37;;;;;;;4.30;3.90;;;;;;;;;;5065642;28;41345;-38
2023/06/16 14:09:05;;;;;;;4.40;4.00;;;;;;;;;;5065663;28;44050;-39
2023/06/16 14:11:37;;;;;;;4.15;3.70;;;;;;;;;;5062108;28;40058;-35
2023/06/16 14:14:05;;;;;;;4.88;4.03;;;;;;;;;;5066095;28;42387;-40
2023/06/16 14:16:34;;;;;;;4.28;3.88;;;;;;;;;;5063713;28;43950;-39
2023/06/16 14:19:02;;;;;;;6.30;4.78;;;;;;;;;;5063294;28;40155;-38
2023/06/16 14:21:31;;;;;;;4.53;4.10;;;;;;;;;;5064287;28;42358;-38
2023/06/16 14:23:59;;;;;;;4.90;3.53;;;;;;;;;;5064116;28;44109;-40
2023/06/16 14:26:27;;;;;;;3.83;3.53;;;;;;;;;;5063771;28;42785;-41
2023/06/16 14:28:56;;;;;;;4.03;3.70;;;;;;;;;;5063789;28;43958;-34
2023/06/16 14:31:24;;;;;;;4.07;3.63;;;;;;;;;;5064504;28;40249;-39
2023/06/16 14:33:53;;;;;;;4.35;3.92;;;;;;;;;;5064557;28;42684;-37
2023/06/16 14:36:21;;;;;;;5.72;3.83;;;;;;;;;;5064817;28;42808;-38
2023/06/16 14:38:50;;;;;;;4.40;4.00;;;;;;;;;;5052136;28;40896;-38
2023/06/16 14:41:17;;;;;;;4.30;3.90;;;;;;;;;;5063459;28;43468;-37
2023/06/16 14:43:45;;;;;;;4.38;3.97;;;;;;;;;;5064842;28;43528;-36
2023/06/16 14:46:15;;;;;;;4.45;4.05;;;;;;;;;;5065593;28;40907;-36
2023/06/16 14:48:43;;;;;;;7.32;3.70;;;;;;;;;;5063343;28;42861;-38
2023/06/16 14:51:11;;;;;;;4.47;4.07;;;;;;;;;;5065550;28;40110;-38
2023/06/16 14:53:39;;;;;;;4.78;3.25;;;;;;;;;;5063506;28;42019;-37
2023/06/16 14:56:07;;;;;;;4.03;3.53;;;;;;;;;;5065066;28;43061;-34